sensor_id;sensor_type;location;lat;lon;timestamp;P1;durP1;ratioP1;P2;durP2;ratioP2
76714;SDS011;65644;44.990;20.288;2023-04-08T00:00:52;69.20;;;46.78;;
76714;SDS011;65644;44.990;20.288;2023-04-08T00:03:19;62.35;;;46.72;;
76714;SDS011;65644;44.990;20.288;2023-04-08T00:05:45;63.67;;;46.30;;
76714;SDS011;65644;44.990;20.288;2023-04-08T00:08:11;69.55;;;48.53;;
76714;SDS011;65644;44.990;20.288;2023-04-08T00:10:37;71.90;;;50.83;;
76714;SDS011;65644;44.990;20.288;2023-04-08T00:13:03;75.75;;;52.88;;
76714;SDS011;65644;44.990;20.288;2023-04-08T00:15:29;188.20;;;90.22;;
76714;SDS011;65644;44.990;20.288;2023-04-08T00:17:55;114.35;;;65.43;;
76714;SDS011;65644;44.990;20.288;2023-04-08T00:20:22;128.30;;;69.32;;
76714;SDS011;65644;44.990;20.288;2023-04-08T00:22:48;120.75;;;67.95;;
76714;SDS011;65644;44.990;20.288;2023-04-08T00:25:14;73.03;;;50.78;;
76714;SDS011;65644;44.990;20.288;2023-04-08T00:27:41;76.18;;;51.55;;
76714;SDS011;65644;44.990;20.288;2023-04-08T00:30:07;72.57;;;49.72;;
76714;SDS011;65644;44.990;20.288;2023-04-08T00:32:33;165.45;;;83.70;;
76714;SDS011;65644;44.990;20.288;2023-04-08T00:34:59;117.80;;;68.60;;
76714;SDS011;65644;44.990;20.288;2023-04-08T00:37:26;126.13;;;70.30;;
76714;SDS011;65644;44.990;20.288;2023-04-08T00:39:52;141.90;;;77.68;;
76714;SDS011;65644;44.990;20.288;2023-04-08T00:42:18;235.25;;;110.30;;
76714;SDS011;65644;44.990;20.288;2023-04-08T00:44:46;334.30;;;148.27;;
76714;SDS011;65644;44.990;20.288;2023-04-08T00:47:12;242.95;;;119.00;;
76714;SDS011;65644;44.990;20.288;2023-04-08T00:49:38;128.05;;;73.55;;
76714;SDS011;65644;44.990;20.288;2023-04-08T00:52:04;74.80;;;53.28;;
76714;SDS011;65644;44.990;20.288;2023-04-08T00:54:30;78.07;;;54.35;;
76714;SDS011;65644;44.990;20.288;2023-04-08T00:56:57;75.82;;;54.90;;
76714;SDS011;65644;44.990;20.288;2023-04-08T00:59:26;92.68;;;63.75;;
76714;SDS011;65644;44.990;20.288;2023-04-08T01:01:58;92.03;;;63.00;;
76714;SDS011;65644;44.990;20.288;2023-04-08T01:07:00;80.82;;;59.33;;
76714;SDS011;65644;44.990;20.288;2023-04-08T01:09:29;79.93;;;57.35;;
76714;SDS011;65644;44.990;20.288;2023-04-08T01:11:57;78.75;;;56.53;;
76714;SDS011;65644;44.990;20.288;2023-04-08T01:14:25;80.63;;;59.13;;
76714;SDS011;65644;44.990;20.288;2023-04-08T01:16:55;85.15;;;57.95;;
76714;SDS011;65644;44.990;20.288;2023-04-08T01:19:28;83.60;;;59.88;;
76714;SDS011;65644;44.990;20.288;2023-04-08T01:21:59;85.13;;;60.10;;
76714;SDS011;65644;44.990;20.288;2023-04-08T01:24:27;89.28;;;61.33;;
76714;SDS011;65644;44.990;20.288;2023-04-08T01:26:54;85.80;;;61.20;;
76714;SDS011;65644;44.990;20.288;2023-04-08T01:29:21;84.07;;;59.33;;
76714;SDS011;65644;44.990;20.288;2023-04-08T01:31:48;84.82;;;61.65;;
76714;SDS011;65644;44.990;20.288;2023-04-08T01:34:15;87.38;;;63.95;;
76714;SDS011;65644;44.990;20.288;2023-04-08T01:36:42;85.90;;;60.33;;
76714;SDS011;65644;44.990;20.288;2023-04-08T01:39:09;92.85;;;66.45;;
76714;SDS011;65644;44.990;20.288;2023-04-08T01:41:36;108.82;;;74.45;;
76714;SDS011;65644;44.990;20.288;2023-04-08T01:44:02;85.10;;;60.08;;
76714;SDS011;65644;44.990;20.288;2023-04-08T01:46:29;78.57;;;57.38;;
76714;SDS011;65644;44.990;20.288;2023-04-08T01:48:56;79.55;;;57.22;;
76714;SDS011;65644;44.990;20.288;2023-04-08T01:51:23;78.20;;;56.00;;
76714;SDS011;65644;44.990;20.288;2023-04-08T01:53:51;77.78;;;56.13;;
76714;SDS011;65644;44.990;20.288;2023-04-08T01:56:17;81.05;;;57.78;;
76714;SDS011;65644;44.990;20.288;2023-04-08T01:58:45;78.00;;;57.85;;
76714;SDS011;65644;44.990;20.288;2023-04-08T02:01:14;81.78;;;59.42;;
76714;SDS011;65644;44.990;20.288;2023-04-08T02:03:43;80.07;;;58.33;;
76714;SDS011;65644;44.990;20.288;2023-04-08T02:06:09;81.72;;;59.70;;
76714;SDS011;65644;44.990;20.288;2023-04-08T02:08:35;79.95;;;57.83;;
76714;SDS011;65644;44.990;20.288;2023-04-08T02:11:02;78.05;;;57.50;;
76714;SDS011;65644;44.990;20.288;2023-04-08T02:13:29;80.00;;;60.10;;
76714;SDS011;65644;44.990;20.288;2023-04-08T02:16:30;81.22;;;58.70;;
76714;SDS011;65644;44.990;20.288;2023-04-08T02:18:54;82.10;;;59.55;;
76714;SDS011;65644;44.990;20.288;2023-04-08T02:21:21;80.97;;;59.72;;
76714;SDS011;65644;44.990;20.288;2023-04-08T02:23:52;83.10;;;59.30;;
76714;SDS011;65644;44.990;20.288;2023-04-08T02:26:19;83.38;;;58.47;;
76714;SDS011;65644;44.990;20.288;2023-04-08T02:28:45;86.75;;;60.67;;
76714;SDS011;65644;44.990;20.288;2023-04-08T02:31:13;83.95;;;58.38;;
76714;SDS011;65644;44.990;20.288;2023-04-08T02:33:39;79.38;;;57.30;;
76714;SDS011;65644;44.990;20.288;2023-04-08T02:36:06;80.47;;;57.75;;
76714;SDS011;65644;44.990;20.288;2023-04-08T02:38:32;85.63;;;62.22;;
76714;SDS011;65644;44.990;20.288;2023-04-08T02:40:59;88.68;;;62.03;;
76714;SDS011;65644;44.990;20.288;2023-04-08T02:43:25;83.85;;;60.45;;
76714;SDS011;65644;44.990;20.288;2023-04-08T02:45:56;84.50;;;60.80;;
76714;SDS011;65644;44.990;20.288;2023-04-08T02:48:24;91.35;;;61.33;;
76714;SDS011;65644;44.990;20.288;2023-04-08T02:50:50;85.53;;;62.13;;
76714;SDS011;65644;44.990;20.288;2023-04-08T02:53:16;87.68;;;59.25;;
76714;SDS011;65644;44.990;20.288;2023-04-08T02:55:42;82.03;;;58.22;;
76714;SDS011;65644;44.990;20.288;2023-04-08T02:58:08;88.35;;;60.95;;
76714;SDS011;65644;44.990;20.288;2023-04-08T03:00:34;85.85;;;60.38;;
76714;SDS011;65644;44.990;20.288;2023-04-08T03:03:03;86.90;;;61.45;;
76714;SDS011;65644;44.990;20.288;2023-04-08T03:05:30;89.72;;;62.25;;
76714;SDS011;65644;44.990;20.288;2023-04-08T03:07:56;88.25;;;61.40;;
76714;SDS011;65644;44.990;20.288;2023-04-08T03:10:22;88.30;;;62.97;;
76714;SDS011;65644;44.990;20.288;2023-04-08T03:12:49;91.90;;;63.00;;
76714;SDS011;65644;44.990;20.288;2023-04-08T03:15:15;92.70;;;62.42;;
76714;SDS011;65644;44.990;20.288;2023-04-08T03:17:41;93.95;;;63.45;;
76714;SDS011;65644;44.990;20.288;2023-04-08T03:20:07;90.05;;;63.28;;
76714;SDS011;65644;44.990;20.288;2023-04-08T03:22:35;91.88;;;62.00;;
76714;SDS011;65644;44.990;20.288;2023-04-08T03:25:01;95.68;;;65.35;;
76714;SDS011;65644;44.990;20.288;2023-04-08T03:27:28;90.07;;;62.47;;
76714;SDS011;65644;44.990;20.288;2023-04-08T03:29:54;90.30;;;62.67;;
76714;SDS011;65644;44.990;20.288;2023-04-08T03:32:21;89.35;;;60.63;;
76714;SDS011;65644;44.990;20.288;2023-04-08T03:34:48;91.13;;;63.05;;
76714;SDS011;65644;44.990;20.288;2023-04-08T03:37:17;90.57;;;61.45;;
76714;SDS011;65644;44.990;20.288;2023-04-08T03:39:43;90.80;;;61.42;;
76714;SDS011;65644;44.990;20.288;2023-04-08T03:42:10;86.43;;;60.97;;
76714;SDS011;65644;44.990;20.288;2023-04-08T03:44:36;87.82;;;59.88;;
76714;SDS011;65644;44.990;20.288;2023-04-08T03:47:02;92.88;;;62.65;;
76714;SDS011;65644;44.990;20.288;2023-04-08T03:49:28;85.93;;;59.90;;
76714;SDS011;65644;44.990;20.288;2023-04-08T03:51:54;85.78;;;60.50;;
76714;SDS011;65644;44.990;20.288;2023-04-08T03:54:20;89.85;;;62.63;;
76714;SDS011;65644;44.990;20.288;2023-04-08T03:56:48;85.13;;;61.75;;
76714;SDS011;65644;44.990;20.288;2023-04-08T03:59:14;83.97;;;60.97;;
76714;SDS011;65644;44.990;20.288;2023-04-08T04:01:40;89.47;;;62.53;;
76714;SDS011;65644;44.990;20.288;2023-04-08T04:04:06;81.07;;;58.08;;
76714;SDS011;65644;44.990;20.288;2023-04-08T04:06:32;82.93;;;60.88;;
76714;SDS011;65644;44.990;20.288;2023-04-08T04:08:58;80.85;;;57.20;;
76714;SDS011;65644;44.990;20.288;2023-04-08T04:11:24;78.07;;;57.10;;
76714;SDS011;65644;44.990;20.288;2023-04-08T04:13:51;80.72;;;58.45;;
76714;SDS011;65644;44.990;20.288;2023-04-08T04:16:17;80.32;;;58.20;;
76714;SDS011;65644;44.990;20.288;2023-04-08T04:18:43;82.43;;;58.22;;
76714;SDS011;65644;44.990;20.288;2023-04-08T04:21:09;81.53;;;57.17;;
76714;SDS011;65644;44.990;20.288;2023-04-08T04:23:35;78.95;;;55.95;;
76714;SDS011;65644;44.990;20.288;2023-04-08T04:26:01;81.90;;;59.25;;
76714;SDS011;65644;44.990;20.288;2023-04-08T04:28:27;79.10;;;56.97;;
76714;SDS011;65644;44.990;20.288;2023-04-08T04:30:53;78.82;;;59.00;;
76714;SDS011;65644;44.990;20.288;2023-04-08T04:33:19;80.38;;;59.17;;
76714;SDS011;65644;44.990;20.288;2023-04-08T04:35:45;90.80;;;68.28;;
76714;SDS011;65644;44.990;20.288;2023-04-08T04:38:11;92.80;;;68.55;;
76714;SDS011;65644;44.990;20.288;2023-04-08T04:40:38;80.93;;;60.97;;
76714;SDS011;65644;44.990;20.288;2023-04-08T04:43:04;78.57;;;59.50;;
76714;SDS011;65644;44.990;20.288;2023-04-08T04:45:31;77.78;;;56.70;;
76714;SDS011;65644;44.990;20.288;2023-04-08T04:47:57;75.43;;;55.33;;
76714;SDS011;65644;44.990;20.288;2023-04-08T04:50:23;75.43;;;56.50;;
76714;SDS011;65644;44.990;20.288;2023-04-08T04:52:49;77.32;;;55.05;;
76714;SDS011;65644;44.990;20.288;2023-04-08T04:55:15;75.20;;;55.50;;
76714;SDS011;65644;44.990;20.288;2023-04-08T04:57:41;74.63;;;54.42;;
76714;SDS011;65644;44.990;20.288;2023-04-08T05:00:08;76.10;;;54.85;;
76714;SDS011;65644;44.990;20.288;2023-04-08T05:02:34;77.30;;;54.30;;
76714;SDS011;65644;44.990;20.288;2023-04-08T05:05:00;74.70;;;54.22;;
76714;SDS011;65644;44.990;20.288;2023-04-08T05:07:26;73.93;;;53.22;;
76714;SDS011;65644;44.990;20.288;2023-04-08T05:09:53;72.72;;;53.42;;
76714;SDS011;65644;44.990;20.288;2023-04-08T05:12:19;77.22;;;54.72;;
76714;SDS011;65644;44.990;20.288;2023-04-08T05:14:45;77.25;;;56.40;;
76714;SDS011;65644;44.990;20.288;2023-04-08T05:17:11;78.05;;;55.67;;
76714;SDS011;65644;44.990;20.288;2023-04-08T05:19:38;74.80;;;56.38;;
76714;SDS011;65644;44.990;20.288;2023-04-08T05:22:04;81.13;;;57.17;;
76714;SDS011;65644;44.990;20.288;2023-04-08T05:24:30;76.07;;;57.00;;
76714;SDS011;65644;44.990;20.288;2023-04-08T05:26:56;78.88;;;56.63;;
76714;SDS011;65644;44.990;20.288;2023-04-08T05:29:22;80.43;;;57.65;;
76714;SDS011;65644;44.990;20.288;2023-04-08T05:31:48;80.78;;;58.10;;
76714;SDS011;65644;44.990;20.288;2023-04-08T05:34:14;83.55;;;59.05;;
76714;SDS011;65644;44.990;20.288;2023-04-08T05:36:46;78.70;;;59.83;;
76714;SDS011;65644;44.990;20.288;2023-04-08T05:39:15;77.43;;;57.72;;
76714;SDS011;65644;44.990;20.288;2023-04-08T05:41:41;77.03;;;56.08;;
76714;SDS011;65644;44.990;20.288;2023-04-08T05:44:08;85.80;;;59.92;;
76714;SDS011;65644;44.990;20.288;2023-04-08T05:46:34;75.82;;;52.47;;
76714;SDS011;65644;44.990;20.288;2023-04-08T05:49:00;68.75;;;52.45;;
76714;SDS011;65644;44.990;20.288;2023-04-08T05:51:26;72.70;;;51.92;;
76714;SDS011;65644;44.990;20.288;2023-04-08T05:53:52;69.00;;;49.58;;
76714;SDS011;65644;44.990;20.288;2023-04-08T05:56:18;68.45;;;49.28;;
76714;SDS011;65644;44.990;20.288;2023-04-08T05:58:45;70.00;;;49.65;;
76714;SDS011;65644;44.990;20.288;2023-04-08T06:01:11;100.75;;;64.68;;
76714;SDS011;65644;44.990;20.288;2023-04-08T06:03:37;89.65;;;60.50;;
76714;SDS011;65644;44.990;20.288;2023-04-08T06:06:03;66.80;;;50.55;;
76714;SDS011;65644;44.990;20.288;2023-04-08T06:08:34;68.55;;;49.85;;
76714;SDS011;65644;44.990;20.288;2023-04-08T06:11:00;63.80;;;48.28;;
76714;SDS011;65644;44.990;20.288;2023-04-08T06:13:28;65.18;;;49.72;;
76714;SDS011;65644;44.990;20.288;2023-04-08T06:15:54;66.25;;;49.45;;
76714;SDS011;65644;44.990;20.288;2023-04-08T06:18:20;63.47;;;46.70;;
76714;SDS011;65644;44.990;20.288;2023-04-08T06:20:46;68.28;;;51.17;;
76714;SDS011;65644;44.990;20.288;2023-04-08T06:23:12;63.58;;;48.70;;
76714;SDS011;65644;44.990;20.288;2023-04-08T06:25:38;67.72;;;48.08;;
76714;SDS011;65644;44.990;20.288;2023-04-08T06:28:04;62.13;;;46.85;;
76714;SDS011;65644;44.990;20.288;2023-04-08T06:30:30;65.53;;;48.95;;
76714;SDS011;65644;44.990;20.288;2023-04-08T06:32:56;63.63;;;49.40;;
76714;SDS011;65644;44.990;20.288;2023-04-08T06:35:22;64.40;;;48.72;;
76714;SDS011;65644;44.990;20.288;2023-04-08T06:37:48;61.35;;;46.80;;
76714;SDS011;65644;44.990;20.288;2023-04-08T06:40:14;65.32;;;48.15;;
76714;SDS011;65644;44.990;20.288;2023-04-08T06:42:40;66.78;;;49.70;;
76714;SDS011;65644;44.990;20.288;2023-04-08T06:45:08;59.85;;;45.17;;
76714;SDS011;65644;44.990;20.288;2023-04-08T06:47:34;57.50;;;44.17;;
76714;SDS011;65644;44.990;20.288;2023-04-08T06:50:00;56.03;;;44.13;;
76714;SDS011;65644;44.990;20.288;2023-04-08T06:52:27;55.80;;;42.47;;
76714;SDS011;65644;44.990;20.288;2023-04-08T06:54:53;56.88;;;42.55;;
76714;SDS011;65644;44.990;20.288;2023-04-08T06:57:19;55.17;;;42.08;;
76714;SDS011;65644;44.990;20.288;2023-04-08T06:59:45;58.28;;;44.67;;
76714;SDS011;65644;44.990;20.288;2023-04-08T07:02:11;57.83;;;44.40;;
76714;SDS011;65644;44.990;20.288;2023-04-08T07:04:37;56.33;;;43.28;;
76714;SDS011;65644;44.990;20.288;2023-04-08T07:07:03;50.03;;;40.45;;
76714;SDS011;65644;44.990;20.288;2023-04-08T07:09:29;53.78;;;42.33;;
76714;SDS011;65644;44.990;20.288;2023-04-08T07:11:55;52.97;;;43.22;;
76714;SDS011;65644;44.990;20.288;2023-04-08T07:14:22;55.92;;;43.70;;
76714;SDS011;65644;44.990;20.288;2023-04-08T07:16:48;48.53;;;39.90;;
76714;SDS011;65644;44.990;20.288;2023-04-08T07:31:29;42.92;;;35.63;;
76714;SDS011;65644;44.990;20.288;2023-04-08T07:33:55;39.17;;;32.42;;
76714;SDS011;65644;44.990;20.288;2023-04-08T07:36:21;40.28;;;31.15;;
76714;SDS011;65644;44.990;20.288;2023-04-08T07:38:47;42.17;;;33.38;;
76714;SDS011;65644;44.990;20.288;2023-04-08T07:41:13;39.67;;;33.40;;
76714;SDS011;65644;44.990;20.288;2023-04-08T07:43:39;37.97;;;30.83;;
76714;SDS011;65644;44.990;20.288;2023-04-08T07:46:06;41.13;;;34.00;;
76714;SDS011;65644;44.990;20.288;2023-04-08T07:48:33;40.33;;;33.35;;
76714;SDS011;65644;44.990;20.288;2023-04-08T07:51:02;37.05;;;30.83;;
76714;SDS011;65644;44.990;20.288;2023-04-08T07:53:29;36.97;;;30.58;;
76714;SDS011;65644;44.990;20.288;2023-04-08T07:55:56;40.30;;;32.67;;
76714;SDS011;65644;44.990;20.288;2023-04-08T07:58:22;42.85;;;35.55;;
76714;SDS011;65644;44.990;20.288;2023-04-08T08:00:48;42.13;;;34.92;;
76714;SDS011;65644;44.990;20.288;2023-04-08T08:03:15;45.33;;;37.70;;
76714;SDS011;65644;44.990;20.288;2023-04-08T08:05:41;43.42;;;37.05;;
76714;SDS011;65644;44.990;20.288;2023-04-08T08:08:07;39.95;;;34.17;;
76714;SDS011;65644;44.990;20.288;2023-04-08T08:10:35;42.45;;;35.40;;
76714;SDS011;65644;44.990;20.288;2023-04-08T08:13:01;47.88;;;40.80;;
76714;SDS011;65644;44.990;20.288;2023-04-08T08:15:27;41.70;;;36.25;;
76714;SDS011;65644;44.990;20.288;2023-04-08T08:17:53;69.10;;;57.50;;
76714;SDS011;65644;44.990;20.288;2023-04-08T08:20:20;42.15;;;36.17;;
76714;SDS011;65644;44.990;20.288;2023-04-08T08:22:46;39.03;;;34.80;;
76714;SDS011;65644;44.990;20.288;2023-04-08T08:25:12;47.90;;;41.33;;
76714;SDS011;65644;44.990;20.288;2023-04-08T08:27:38;35.90;;;30.65;;
76714;SDS011;65644;44.990;20.288;2023-04-08T08:30:06;34.00;;;29.42;;
76714;SDS011;65644;44.990;20.288;2023-04-08T08:32:33;38.25;;;31.85;;
76714;SDS011;65644;44.990;20.288;2023-04-08T08:34:59;38.95;;;30.83;;
76714;SDS011;65644;44.990;20.288;2023-04-08T08:37:25;37.85;;;32.88;;
76714;SDS011;65644;44.990;20.288;2023-04-08T08:39:52;38.90;;;34.58;;
76714;SDS011;65644;44.990;20.288;2023-04-08T08:42:21;37.75;;;31.95;;
76714;SDS011;65644;44.990;20.288;2023-04-08T08:44:48;37.45;;;31.80;;
76714;SDS011;65644;44.990;20.288;2023-04-08T08:47:14;36.65;;;32.35;;
76714;SDS011;65644;44.990;20.288;2023-04-08T08:49:41;37.50;;;30.33;;
76714;SDS011;65644;44.990;20.288;2023-04-08T08:52:07;42.17;;;33.53;;
76714;SDS011;65644;44.990;20.288;2023-04-08T08:54:34;45.85;;;37.00;;
76714;SDS011;65644;44.990;20.288;2023-04-08T08:57:00;42.22;;;35.47;;
76714;SDS011;65644;44.990;20.288;2023-04-08T08:59:26;38.08;;;33.92;;
76714;SDS011;65644;44.990;20.288;2023-04-08T09:01:52;38.05;;;33.40;;
76714;SDS011;65644;44.990;20.288;2023-04-08T09:04:19;42.17;;;33.95;;
76714;SDS011;65644;44.990;20.288;2023-04-08T09:06:47;39.67;;;32.83;;
76714;SDS011;65644;44.990;20.288;2023-04-08T09:09:14;36.90;;;32.90;;
76714;SDS011;65644;44.990;20.288;2023-04-08T09:11:42;37.08;;;32.97;;
76714;SDS011;65644;44.990;20.288;2023-04-08T09:16:43;61.72;;;43.38;;
76714;SDS011;65644;44.990;20.288;2023-04-08T09:19:10;36.80;;;31.80;;
76714;SDS011;65644;44.990;20.288;2023-04-08T09:21:37;40.85;;;33.47;;
76714;SDS011;65644;44.990;20.288;2023-04-08T09:24:04;37.45;;;33.30;;
76714;SDS011;65644;44.990;20.288;2023-04-08T09:26:30;36.85;;;32.25;;
76714;SDS011;65644;44.990;20.288;2023-04-08T09:29:00;37.00;;;31.88;;
76714;SDS011;65644;44.990;20.288;2023-04-08T09:31:27;37.15;;;32.58;;
76714;SDS011;65644;44.990;20.288;2023-04-08T09:33:56;40.15;;;32.67;;
76714;SDS011;65644;44.990;20.288;2023-04-08T09:36:23;35.70;;;31.60;;
76714;SDS011;65644;44.990;20.288;2023-04-08T09:38:50;36.35;;;31.88;;
76714;SDS011;65644;44.990;20.288;2023-04-08T09:41:17;34.03;;;30.35;;
76714;SDS011;65644;44.990;20.288;2023-04-08T09:43:48;43.13;;;29.60;;
76714;SDS011;65644;44.990;20.288;2023-04-08T09:46:16;31.67;;;28.30;;
76714;SDS011;65644;44.990;20.288;2023-04-08T09:48:49;37.10;;;30.23;;
76714;SDS011;65644;44.990;20.288;2023-04-08T09:51:15;42.55;;;31.00;;
76714;SDS011;65644;44.990;20.288;2023-04-08T09:53:45;42.90;;;31.30;;
76714;SDS011;65644;44.990;20.288;2023-04-08T09:56:11;41.33;;;31.75;;
76714;SDS011;65644;44.990;20.288;2023-04-08T09:58:40;42.13;;;33.78;;
76714;SDS011;65644;44.990;20.288;2023-04-08T10:01:07;41.80;;;32.67;;
76714;SDS011;65644;44.990;20.288;2023-04-08T10:03:36;39.42;;;32.20;;
76714;SDS011;65644;44.990;20.288;2023-04-08T10:06:05;38.67;;;30.42;;
76714;SDS011;65644;44.990;20.288;2023-04-08T10:08:32;40.63;;;32.63;;
76714;SDS011;65644;44.990;20.288;2023-04-08T10:10:58;37.55;;;31.42;;
76714;SDS011;65644;44.990;20.288;2023-04-08T10:13:24;37.67;;;30.98;;
76714;SDS011;65644;44.990;20.288;2023-04-08T10:18:47;41.92;;;32.38;;
76714;SDS011;65644;44.990;20.288;2023-04-08T10:21:32;43.22;;;32.13;;
76714;SDS011;65644;44.990;20.288;2023-04-08T10:23:59;33.47;;;29.83;;
76714;SDS011;65644;44.990;20.288;2023-04-08T10:26:35;43.03;;;32.30;;
76714;SDS011;65644;44.990;20.288;2023-04-08T10:31:57;36.70;;;30.95;;
76714;SDS011;65644;44.990;20.288;2023-04-08T10:34:23;41.83;;;32.38;;
76714;SDS011;65644;44.990;20.288;2023-04-08T10:36:50;35.45;;;30.48;;
76714;SDS011;65644;44.990;20.288;2023-04-08T10:39:17;42.63;;;33.90;;
76714;SDS011;65644;44.990;20.288;2023-04-08T10:41:43;37.50;;;32.42;;
76714;SDS011;65644;44.990;20.288;2023-04-08T10:46:47;41.05;;;32.85;;
76714;SDS011;65644;44.990;20.288;2023-04-08T10:49:14;39.03;;;32.60;;
76714;SDS011;65644;44.990;20.288;2023-04-08T10:51:41;36.58;;;30.10;;
76714;SDS011;65644;44.990;20.288;2023-04-08T10:54:12;33.05;;;29.45;;
76714;SDS011;65644;44.990;20.288;2023-04-08T10:56:51;33.80;;;28.88;;
76714;SDS011;65644;44.990;20.288;2023-04-08T10:59:30;34.00;;;28.55;;
76714;SDS011;65644;44.990;20.288;2023-04-08T11:01:56;36.03;;;30.50;;
76714;SDS011;65644;44.990;20.288;2023-04-08T11:04:24;40.13;;;31.85;;
76714;SDS011;65644;44.990;20.288;2023-04-08T11:06:51;39.53;;;33.78;;
76714;SDS011;65644;44.990;20.288;2023-04-08T11:09:17;33.08;;;28.90;;
76714;SDS011;65644;44.990;20.288;2023-04-08T11:11:44;39.85;;;31.30;;
76714;SDS011;65644;44.990;20.288;2023-04-08T11:14:11;46.50;;;30.30;;
76714;SDS011;65644;44.990;20.288;2023-04-08T11:16:37;81.97;;;34.90;;
76714;SDS011;65644;44.990;20.288;2023-04-08T11:19:04;45.80;;;31.42;;
76714;SDS011;65644;44.990;20.288;2023-04-08T11:21:36;33.80;;;29.60;;
76714;SDS011;65644;44.990;20.288;2023-04-08T11:24:06;37.80;;;31.80;;
76714;SDS011;65644;44.990;20.288;2023-04-08T11:26:36;35.65;;;29.90;;
76714;SDS011;65644;44.990;20.288;2023-04-08T11:29:02;32.25;;;28.85;;
76714;SDS011;65644;44.990;20.288;2023-04-08T11:31:29;34.75;;;30.00;;
76714;SDS011;65644;44.990;20.288;2023-04-08T11:33:55;38.38;;;30.88;;
76714;SDS011;65644;44.990;20.288;2023-04-08T11:36:22;35.78;;;30.58;;
76714;SDS011;65644;44.990;20.288;2023-04-08T11:38:48;44.03;;;35.05;;
76714;SDS011;65644;44.990;20.288;2023-04-08T11:41:14;57.33;;;42.33;;
76714;SDS011;65644;44.990;20.288;2023-04-08T11:43:51;44.47;;;35.75;;
76714;SDS011;65644;44.990;20.288;2023-04-08T11:46:17;35.80;;;31.35;;
76714;SDS011;65644;44.990;20.288;2023-04-08T11:48:57;40.55;;;34.17;;
76714;SDS011;65644;44.990;20.288;2023-04-08T11:51:23;36.63;;;32.30;;
76714;SDS011;65644;44.990;20.288;2023-04-08T11:53:50;34.03;;;29.95;;
76714;SDS011;65644;44.990;20.288;2023-04-08T11:56:22;37.17;;;32.75;;
76714;SDS011;65644;44.990;20.288;2023-04-08T11:58:49;36.42;;;30.98;;
76714;SDS011;65644;44.990;20.288;2023-04-08T12:01:16;37.42;;;31.88;;
76714;SDS011;65644;44.990;20.288;2023-04-08T12:03:54;38.13;;;34.03;;
76714;SDS011;65644;44.990;20.288;2023-04-08T12:06:20;38.45;;;32.97;;
76714;SDS011;65644;44.990;20.288;2023-04-08T12:08:47;34.35;;;30.25;;
76714;SDS011;65644;44.990;20.288;2023-04-08T12:11:13;31.83;;;28.38;;
76714;SDS011;65644;44.990;20.288;2023-04-08T12:13:40;32.65;;;28.58;;
76714;SDS011;65644;44.990;20.288;2023-04-08T12:16:06;34.28;;;30.63;;
76714;SDS011;65644;44.990;20.288;2023-04-08T12:18:32;31.90;;;28.13;;
76714;SDS011;65644;44.990;20.288;2023-04-08T12:20:58;37.85;;;28.02;;
76714;SDS011;65644;44.990;20.288;2023-04-08T12:23:24;29.70;;;26.63;;
76714;SDS011;65644;44.990;20.288;2023-04-08T12:25:51;31.55;;;26.63;;
76714;SDS011;65644;44.990;20.288;2023-04-08T12:28:17;30.98;;;26.48;;
76714;SDS011;65644;44.990;20.288;2023-04-08T12:30:43;35.45;;;30.50;;
76714;SDS011;65644;44.990;20.288;2023-04-08T12:33:09;37.75;;;32.10;;
76714;SDS011;65644;44.990;20.288;2023-04-08T12:35:35;33.67;;;29.23;;
76714;SDS011;65644;44.990;20.288;2023-04-08T12:38:01;32.67;;;29.00;;
76714;SDS011;65644;44.990;20.288;2023-04-08T12:40:27;29.42;;;26.23;;
76714;SDS011;65644;44.990;20.288;2023-04-08T12:42:53;34.03;;;30.20;;
76714;SDS011;65644;44.990;20.288;2023-04-08T12:45:19;29.40;;;25.52;;
76714;SDS011;65644;44.990;20.288;2023-04-08T12:47:45;31.35;;;27.42;;
76714;SDS011;65644;44.990;20.288;2023-04-08T12:50:11;32.40;;;27.50;;
76714;SDS011;65644;44.990;20.288;2023-04-08T12:52:39;34.30;;;30.13;;
76714;SDS011;65644;44.990;20.288;2023-04-08T12:55:05;35.25;;;31.45;;
76714;SDS011;65644;44.990;20.288;2023-04-08T12:57:32;31.60;;;28.02;;
76714;SDS011;65644;44.990;20.288;2023-04-08T12:59:58;32.33;;;27.75;;
76714;SDS011;65644;44.990;20.288;2023-04-08T13:02:24;28.92;;;25.17;;
76714;SDS011;65644;44.990;20.288;2023-04-08T13:04:51;33.28;;;29.33;;
76714;SDS011;65644;44.990;20.288;2023-04-08T13:07:17;32.13;;;28.48;;
76714;SDS011;65644;44.990;20.288;2023-04-08T13:09:44;28.42;;;24.85;;
76714;SDS011;65644;44.990;20.288;2023-04-08T13:12:10;31.90;;;27.77;;
76714;SDS011;65644;44.990;20.288;2023-04-08T13:14:37;28.92;;;25.75;;
76714;SDS011;65644;44.990;20.288;2023-04-08T13:17:03;31.35;;;26.58;;
76714;SDS011;65644;44.990;20.288;2023-04-08T13:19:29;35.45;;;31.52;;
76714;SDS011;65644;44.990;20.288;2023-04-08T13:21:55;32.45;;;28.33;;
76714;SDS011;65644;44.990;20.288;2023-04-08T13:24:21;27.25;;;24.35;;
76714;SDS011;65644;44.990;20.288;2023-04-08T13:26:48;29.85;;;25.23;;
76714;SDS011;65644;44.990;20.288;2023-04-08T13:29:14;30.70;;;27.45;;
76714;SDS011;65644;44.990;20.288;2023-04-08T13:31:40;32.53;;;27.73;;
76714;SDS011;65644;44.990;20.288;2023-04-08T13:34:06;31.90;;;26.27;;
76714;SDS011;65644;44.990;20.288;2023-04-08T13:36:32;27.73;;;24.73;;
76714;SDS011;65644;44.990;20.288;2023-04-08T13:38:58;45.35;;;31.45;;
76714;SDS011;65644;44.990;20.288;2023-04-08T13:41:24;33.10;;;28.88;;
76714;SDS011;65644;44.990;20.288;2023-04-08T13:43:52;31.85;;;28.10;;
76714;SDS011;65644;44.990;20.288;2023-04-08T13:46:18;28.80;;;25.75;;
76714;SDS011;65644;44.990;20.288;2023-04-08T13:48:44;29.88;;;25.73;;
76714;SDS011;65644;44.990;20.288;2023-04-08T13:51:10;34.30;;;29.27;;
76714;SDS011;65644;44.990;20.288;2023-04-08T13:53:36;35.72;;;30.20;;
76714;SDS011;65644;44.990;20.288;2023-04-08T13:56:02;35.35;;;29.25;;
76714;SDS011;65644;44.990;20.288;2023-04-08T13:58:28;33.88;;;28.65;;
76714;SDS011;65644;44.990;20.288;2023-04-08T14:00:55;44.35;;;35.72;;
76714;SDS011;65644;44.990;20.288;2023-04-08T14:03:21;34.22;;;29.90;;
76714;SDS011;65644;44.990;20.288;2023-04-08T14:05:47;33.00;;;28.38;;
76714;SDS011;65644;44.990;20.288;2023-04-08T14:08:14;35.13;;;29.67;;
76714;SDS011;65644;44.990;20.288;2023-04-08T14:10:42;31.13;;;26.42;;
76714;SDS011;65644;44.990;20.288;2023-04-08T14:13:08;29.50;;;26.35;;
76714;SDS011;65644;44.990;20.288;2023-04-08T14:15:34;31.73;;;28.33;;
76714;SDS011;65644;44.990;20.288;2023-04-08T14:18:00;29.92;;;26.58;;
76714;SDS011;65644;44.990;20.288;2023-04-08T14:20:26;31.08;;;26.13;;
76714;SDS011;65644;44.990;20.288;2023-04-08T14:22:52;30.58;;;26.17;;
76714;SDS011;65644;44.990;20.288;2023-04-08T14:25:20;41.17;;;32.28;;
76714;SDS011;65644;44.990;20.288;2023-04-08T14:27:46;52.63;;;41.55;;
76714;SDS011;65644;44.990;20.288;2023-04-08T14:30:12;32.38;;;28.77;;
76714;SDS011;65644;44.990;20.288;2023-04-08T14:32:38;37.40;;;31.25;;